Terminal Aerodrome Forecast
Issued by NWS Houston/Galveston, TX

Home | Current Version | Previous Version | Text Only | Print | Product List | Glossary On
Versions: 1 2 3 4 5 6 7 8 9 10 11 12 13 14 15 16 17 18 19 20 21 22 23 24 25 26 27 28 29 30 31 32 33 34 35 36
381
FTUS44 KHGX 130526
TAFCLL
TAF
KCLL 130526Z 1306/1406 02006KT P6SM SKC
     FM130900 04006KT P6SM SCT035
     FM131500 08010KT P6SM BKN025
     FM131800 12013KT P6SM OVC025
     FM140000 13012KT P6SM BKN035
     FM140400 14009KT P6SM BKN015 OVC025=

USA.gov is the U.S. government's official web portal to all federal, state and local government web resources and services.